Time;durP1;ratioP1;P1;durP2;ratioP2;P2;SDS_P1;SDS_P2;PMS_P1;PMS_P2;Temp;Humidity;BMP_temperature;BMP_pressure;BME280_temperature;BME280_humidity;BME280_pressure;Samples;Min_cycle;Max_cycle;Signal;HPM_P1;HPM_P2
2023/12/31 00:01:53;;;;;;;3.55;1.92;;;6.20;99.90;;;;;;5077018;28;20323;-64
2023/12/31 00:04:19;;;;;;;2.45;2.25;;;6.10;99.90;;;;;;5076218;28;20277;-65
2023/12/31 00:06:46;;;;;;;7.88;2.28;;;6.20;99.90;;;;;;5076375;28;20201;-63
2023/12/31 00:09:13;;;;;;;6.57;4.15;;;6.20;99.90;;;;;;5076693;28;20247;-64
2023/12/31 00:11:40;;;;;;;2.65;2.20;;;6.20;99.90;;;;;;5076834;28;20267;-63
2023/12/31 00:14:08;;;;;;;2.83;1.95;;;6.20;99.90;;;;;;5078503;28;20208;-64
2023/12/31 00:16:35;;;;;;;3.65;1.98;;;6.20;99.90;;;;;;5078062;28;20231;-64
2023/12/31 00:19:01;;;;;;;4.68;1.98;;;6.20;99.90;;;;;;5076725;28;20307;-64
2023/12/31 00:21:28;;;;;;;4.60;2.45;;;6.20;99.90;;;;;;5076369;28;20299;-63
2023/12/31 00:23:55;;;;;;;2.65;2.05;;;6.20;99.90;;;;;;5076410;28;20209;-65
2023/12/31 00:26:22;;;;;;;7.63;3.05;;;6.20;99.90;;;;;;5074878;28;20197;-64
2023/12/31 00:28:48;;;;;;;4.65;2.63;;;6.20;99.90;;;;;;5078069;28;20196;-64
2023/12/31 00:31:18;;;;;;;4.75;3.13;;;6.30;99.90;;;;;;5079231;28;20215;-64
2023/12/31 00:33:45;;;;;;;5.68;2.58;;;6.30;99.90;;;;;;5078940;28;20196;-64
2023/12/31 00:36:11;;;;;;;7.97;2.20;;;6.30;99.90;;;;;;5078911;28;20276;-65
2023/12/31 00:38:39;;;;;;;6.32;2.53;;;6.30;99.90;;;;;;5078811;28;20216;-63
2023/12/31 00:41:05;;;;;;;8.38;2.15;;;6.40;99.90;;;;;;5078935;28;20207;-64
2023/12/31 00:43:32;;;;;;;7.80;2.60;;;6.50;99.90;;;;;;5078747;28;20223;-64
2023/12/31 00:46:00;;;;;;;2.88;2.30;;;6.50;99.90;;;;;;5078695;28;20207;-64
2023/12/31 00:48:28;;;;;;;6.40;1.88;;;6.50;99.90;;;;;;5078685;28;20207;-64
2023/12/31 00:50:54;;;;;;;10.82;2.63;;;6.50;99.90;;;;;;5079185;28;20701;-64
2023/12/31 00:53:21;;;;;;;2.28;2.00;;;6.50;99.90;;;;;;5078858;28;20730;-64
2023/12/31 00:55:48;;;;;;;2.90;2.22;;;6.50;99.90;;;;;;5082182;28;20223;-65
2023/12/31 00:58:15;;;;;;;2.88;2.03;;;6.60;99.90;;;;;;5081581;28;20252;-64
2023/12/31 01:00:42;;;;;;;3.45;1.80;;;6.60;99.90;;;;;;5078857;28;20292;-64
2023/12/31 01:03:09;;;;;;;7.38;2.90;;;6.60;99.90;;;;;;5077944;28;20316;-63
2023/12/31 01:05:37;;;;;;;9.93;2.78;;;6.60;99.90;;;;;;5079530;28;20215;-65
2023/12/31 01:08:04;;;;;;;4.55;2.15;;;6.60;99.90;;;;;;5081011;28;20200;-64
2023/12/31 01:10:31;;;;;;;5.20;2.67;;;6.60;99.90;;;;;;5079009;28;20202;-64
2023/12/31 01:12:58;;;;;;;5.43;2.90;;;6.60;99.90;;;;;;5085851;28;20239;-64
2023/12/31 01:15:24;;;;;;;3.25;2.35;;;6.60;99.90;;;;;;5088506;28;20200;-64
2023/12/31 01:17:51;;;;;;;8.02;2.55;;;6.60;99.90;;;;;;5085682;28;20307;-64
2023/12/31 01:20:18;;;;;;;4.57;2.42;;;6.70;99.90;;;;;;5082541;28;20287;-65
2023/12/31 01:22:47;;;;;;;2.92;2.10;;;6.80;99.90;;;;;;5081719;28;20315;-65
2023/12/31 01:25:13;;;;;;;6.93;2.13;;;6.80;99.90;;;;;;5080914;28;20212;-64
2023/12/31 01:27:40;;;;;;;5.95;2.70;;;6.90;99.90;;;;;;5081302;28;20205;-65
2023/12/31 01:30:08;;;;;;;5.13;2.42;;;7.00;99.90;;;;;;5079822;28;20693;-64
2023/12/31 01:32:35;;;;;;;3.58;2.00;;;7.10;99.90;;;;;;5078448;28;20305;-64
2023/12/31 01:35:03;;;;;;;3.88;2.10;;;7.20;99.90;;;;;;5080165;28;20210;-64
2023/12/31 01:37:30;;;;;;;5.60;2.22;;;7.20;99.90;;;;;;5083740;28;20221;-64
2023/12/31 01:39:58;;;;;;;4.93;2.10;;;7.30;99.90;;;;;;5084539;28;20211;-65
2023/12/31 01:42:24;;;;;;;2.67;2.30;;;7.30;99.90;;;;;;5078849;28;20228;-66
2023/12/31 01:44:52;;;;;;;4.90;2.03;;;7.30;99.90;;;;;;5080055;28;20211;-64
2023/12/31 01:47:19;;;;;;;3.08;1.83;;;7.30;99.90;;;;;;5079192;28;20201;-64
2023/12/31 01:49:46;;;;;;;3.45;1.85;;;7.20;99.90;;;;;;5078137;28;20247;-64
2023/12/31 01:52:13;;;;;;;4.50;2.25;;;7.10;99.90;;;;;;5077707;28;20223;-65
2023/12/31 01:54:41;;;;;;;4.70;2.30;;;7.10;99.90;;;;;;5077824;28;20209;-63
2023/12/31 01:57:11;;;;;;;6.18;3.03;;;7.00;99.90;;;;;;5077015;28;20201;-64
2023/12/31 01:59:39;;;;;;;3.55;1.85;;;7.00;99.90;;;;;;5077876;28;20276;-64
2023/12/31 02:02:05;;;;;;;3.25;2.08;;;7.00;99.90;;;;;;5080532;28;20243;-64
2023/12/31 02:04:34;;;;;;;3.08;2.78;;;7.00;99.90;;;;;;5083298;28;20203;-64
2023/12/31 02:07:01;;;;;;;3.92;2.30;;;6.90;99.90;;;;;;5080133;28;20201;-64
2023/12/31 02:09:28;;;;;;;3.90;2.47;;;6.90;99.90;;;;;;5078756;28;20200;-64
2023/12/31 02:11:56;;;;;;;5.47;2.30;;;6.90;99.90;;;;;;5077494;28;20705;-63
2023/12/31 02:14:24;;;;;;;3.15;2.38;;;6.80;99.90;;;;;;5077925;28;20204;-64
2023/12/31 02:16:50;;;;;;;4.40;2.30;;;6.80;99.90;;;;;;5078552;28;20277;-64
2023/12/31 02:19:17;;;;;;;4.38;2.90;;;6.80;99.90;;;;;;5077463;28;20293;-64
2023/12/31 02:21:44;;;;;;;6.15;3.10;;;6.80;99.90;;;;;;5077579;28;20217;-64
2023/12/31 02:24:14;;;;;;;4.38;2.80;;;6.70;99.90;;;;;;5077260;28;20201;-64
2023/12/31 02:26:42;;;;;;;4.30;2.50;;;6.70;99.90;;;;;;5076568;28;20208;-64
2023/12/31 02:29:09;;;;;;;6.03;3.08;;;6.70;99.90;;;;;;5076687;28;20193;-64
2023/12/31 02:31:36;;;;;;;4.32;2.80;;;6.70;99.90;;;;;;5076364;28;20224;-64
2023/12/31 02:34:03;;;;;;;5.07;2.50;;;6.60;99.90;;;;;;5075914;28;20575;-64
2023/12/31 02:36:29;;;;;;;4.25;2.55;;;6.60;99.90;;;;;;5075840;28;20200;-64
2023/12/31 02:38:56;;;;;;;7.28;2.70;;;6.60;99.90;;;;;;5076456;28;20217;-63
2023/12/31 02:41:23;;;;;;;2.90;2.60;;;6.60;99.90;;;;;;5077254;28;20227;-64
2023/12/31 02:43:52;;;;;;;7.70;2.70;;;6.60;99.90;;;;;;5078680;28;20219;-65
2023/12/31 02:46:19;;;;;;;2.90;2.30;;;6.60;99.90;;;;;;5083168;28;20212;-65
2023/12/31 02:48:46;;;;;;;3.97;2.70;;;6.60;99.90;;;;;;5085422;28;20201;-64
2023/12/31 02:51:12;;;;;;;3.20;2.17;;;6.60;99.90;;;;;;5078538;28;20211;-63
2023/12/31 02:53:39;;;;;;;2.53;2.10;;;6.60;99.90;;;;;;5089118;28;20268;-64
2023/12/31 02:56:06;;;;;;;5.13;2.40;;;6.60;99.90;;;;;;5087838;28;20204;-65
2023/12/31 02:58:33;;;;;;;3.15;2.40;;;6.60;99.90;;;;;;5083329;28;20228;-64
2023/12/31 03:01:02;;;;;;;5.22;2.80;;;6.60;99.90;;;;;;5082667;28;20534;-63
2023/12/31 03:03:28;;;;;;;3.05;2.10;;;6.60;99.90;;;;;;5077608;28;20701;-63
2023/12/31 03:05:55;;;;;;;4.55;2.55;;;6.60;99.90;;;;;;5076248;28;20578;-64
2023/12/31 03:08:22;;;;;;;8.27;2.80;;;6.60;99.90;;;;;;5075790;28;20201;-64
2023/12/31 03:10:49;;;;;;;5.15;2.50;;;6.60;99.90;;;;;;5075876;28;20197;-64
2023/12/31 03:13:16;;;;;;;4.93;3.63;;;6.60;99.90;;;;;;5076052;28;20646;-63
2023/12/31 03:15:43;;;;;;;3.55;2.47;;;6.60;99.90;;;;;;5074801;28;20667;-63
2023/12/31 03:18:11;;;;;;;5.50;2.55;;;6.60;99.90;;;;;;5075647;28;20266;-63
2023/12/31 03:20:38;;;;;;;6.03;3.28;;;6.60;99.90;;;;;;5075744;28;20197;-63
2023/12/31 03:23:05;;;;;;;7.05;2.85;;;6.60;99.90;;;;;;5075398;28;20577;-64
2023/12/31 03:25:31;;;;;;;3.25;2.35;;;6.60;99.90;;;;;;5074967;28;20205;-65
2023/12/31 03:27:58;;;;;;;3.95;2.83;;;6.60;99.90;;;;;;5075369;28;20576;-63
2023/12/31 03:30:25;;;;;;;5.80;2.60;;;6.60;99.90;;;;;;5075723;28;20200;-63
2023/12/31 03:32:51;;;;;;;5.03;2.13;;;6.60;99.90;;;;;;5074850;28;20217;-64
2023/12/31 03:35:20;;;;;;;4.55;2.72;;;6.70;99.90;;;;;;5074722;28;20204;-63
2023/12/31 03:37:47;;;;;;;4.28;2.40;;;6.70;99.90;;;;;;5074631;28;20205;-63
2023/12/31 03:40:15;;;;;;;2.83;2.30;;;6.80;99.90;;;;;;5074800;28;20209;-64
2023/12/31 03:42:42;;;;;;;5.03;2.38;;;6.90;99.90;;;;;;5074208;28;20703;-64
2023/12/31 03:45:09;;;;;;;3.65;2.50;;;6.90;99.90;;;;;;5074098;28;20209;-63
2023/12/31 03:47:36;;;;;;;3.08;2.17;;;6.90;99.90;;;;;;5074934;28;20200;-64
2023/12/31 03:50:03;;;;;;;2.67;2.10;;;6.80;99.90;;;;;;5074404;28;20201;-64
2023/12/31 03:52:31;;;;;;;2.30;2.10;;;6.80;99.90;;;;;;5074723;28;20312;-63
2023/12/31 03:54:58;;;;;;;8.27;2.38;;;6.80;99.90;;;;;;5075237;28;20201;-64
2023/12/31 03:57:24;;;;;;;6.32;1.80;;;6.80;99.90;;;;;;5074746;28;20207;-64
2023/12/31 03:59:52;;;;;;;4.80;2.30;;;6.90;99.90;;;;;;5073993;28;20220;-63
2023/12/31 04:02:18;;;;;;;2.88;2.13;;;6.90;99.90;;;;;;5073830;28;20233;-64
2023/12/31 04:04:45;;;;;;;2.47;1.90;;;6.90;99.90;;;;;;5074427;28;20228;-64
2023/12/31 04:07:12;;;;;;;2.13;1.90;;;6.90;99.90;;;;;;5085575;28;20291;-65
2023/12/31 04:12:53;;;;;;;2.28;1.95;;;7.00;99.90;;;;;;5095309;27;20565;-64
2023/12/31 04:15:20;;;;;;;2.80;1.70;;;7.00;99.90;;;;;;5093051;28;20218;-64
2023/12/31 04:17:47;;;;;;;2.85;2.25;;;7.00;99.90;;;;;;5091912;28;20199;-64
2023/12/31 04:20:14;;;;;;;2.53;2.00;;;7.00;99.90;;;;;;5092015;28;20207;-63
2023/12/31 04:22:41;;;;;;;9.02;2.97;;;7.00;99.90;;;;;;5091610;28;20251;-65
2023/12/31 04:25:08;;;;;;;7.10;2.10;;;7.00;99.90;;;;;;5100454;28;20202;-64
2023/12/31 04:27:38;;;;;;;2.78;2.15;;;7.00;99.90;;;;;;5105683;28;20262;-64
2023/12/31 04:30:07;;;;;;;3.97;2.17;;;6.90;99.90;;;;;;5097743;28;20200;-64
2023/12/31 04:32:34;;;;;;;3.08;2.42;;;6.90;99.90;;;;;;5096074;28;20220;-64
2023/12/31 04:35:01;;;;;;;3.13;2.28;;;6.80;99.90;;;;;;5096915;28;20200;-64
2023/12/31 04:37:28;;;;;;;4.15;2.63;;;6.80;99.90;;;;;;5096016;28;20291;-64
2023/12/31 04:39:54;;;;;;;2.80;2.30;;;6.70;99.90;;;;;;5092152;28;20577;-64
2023/12/31 04:42:21;;;;;;;4.60;2.38;;;6.70;99.90;;;;;;5092070;28;20225;-65
2023/12/31 04:44:49;;;;;;;3.55;2.00;;;6.60;99.90;;;;;;5091877;28;20196;-64
2023/12/31 04:47:17;;;;;;;2.95;2.30;;;6.60;99.90;;;;;;5091453;28;20205;-64
2023/12/31 04:49:44;;;;;;;3.67;2.83;;;6.50;99.90;;;;;;5091743;28;20208;-65
2023/12/31 04:52:11;;;;;;;5.55;2.60;;;6.50;99.90;;;;;;5091432;28;20307;-63
2023/12/31 04:54:39;;;;;;;4.80;2.38;;;6.40;99.90;;;;;;5091685;28;20284;-64
2023/12/31 04:57:06;;;;;;;3.45;2.20;;;6.40;99.90;;;;;;5091904;28;20204;-63
2023/12/31 04:59:33;;;;;;;3.63;2.22;;;6.40;99.90;;;;;;5091079;28;20579;-63
2023/12/31 05:01:59;;;;;;;5.80;2.85;;;6.30;99.90;;;;;;5094480;22;20291;-62
2023/12/31 05:04:28;;;;;;;2.80;2.05;;;6.30;99.90;;;;;;5049421;28;20202;-61
2023/12/31 05:06:54;;;;;;;3.72;2.20;;;6.30;99.90;;;;;;5049133;28;20198;-61
2023/12/31 05:09:23;;;;;;;2.55;1.85;;;6.30;99.90;;;;;;5049300;28;20201;-61
2023/12/31 05:11:50;;;;;;;3.63;2.50;;;6.30;99.90;;;;;;5049340;28;20230;-60
2023/12/31 05:14:16;;;;;;;3.65;2.90;;;6.30;99.90;;;;;;5049464;28;20197;-62
2023/12/31 05:16:44;;;;;;;2.42;2.22;;;6.30;99.90;;;;;;5049292;28;20686;-63
2023/12/31 05:19:11;;;;;;;3.42;2.40;;;6.20;99.90;;;;;;5049381;28;20671;-61
2023/12/31 05:21:40;;;;;;;3.53;3.22;;;6.20;99.90;;;;;;5049622;28;20572;-61
2023/12/31 05:24:07;;;;;;;4.43;2.20;;;6.20;99.90;;;;;;5037449;28;20253;-62
2023/12/31 05:26:34;;;;;;;2.95;2.33;;;6.20;99.90;;;;;;5037136;28;20229;-61
2023/12/31 05:29:01;;;;;;;3.90;2.05;;;6.20;99.90;;;;;;5036857;28;20229;-61
2023/12/31 05:31:28;;;;;;;3.13;2.60;;;6.20;99.90;;;;;;5036599;28;20704;-61
2023/12/31 05:33:55;;;;;;;3.58;2.50;;;6.20;99.90;;;;;;5037955;28;20669;-62
2023/12/31 05:36:21;;;;;;;3.80;2.97;;;6.20;99.90;;;;;;5037514;28;20684;-63
2023/12/31 05:38:50;;;;;;;2.72;2.33;;;6.20;99.90;;;;;;5036473;28;20201;-61
2023/12/31 05:41:16;;;;;;;2.92;2.33;;;6.30;99.90;;;;;;5035939;28;20221;-62
2023/12/31 05:43:43;;;;;;;4.10;2.70;;;6.40;99.90;;;;;;5036736;28;20218;-62
2023/12/31 05:46:10;;;;;;;3.67;2.65;;;6.40;99.90;;;;;;5037616;28;20580;-61
2023/12/31 05:48:38;;;;;;;3.75;2.83;;;6.40;99.90;;;;;;5035933;28;20198;-61
2023/12/31 05:51:05;;;;;;;5.03;2.85;;;6.50;99.90;;;;;;5036224;28;20584;-61
2023/12/31 05:53:32;;;;;;;4.57;2.65;;;6.50;99.90;;;;;;5035153;28;20568;-61
2023/12/31 05:56:00;;;;;;;5.45;2.53;;;6.50;99.90;;;;;;5035341;28;20687;-60
2023/12/31 05:58:27;;;;;;;4.40;2.95;;;6.60;99.90;;;;;;5035290;28;20198;-61
2023/12/31 06:00:54;;;;;;;6.10;2.90;;;6.50;99.90;;;;;;5034907;28;20668;-63
2023/12/31 06:03:20;;;;;;;4.28;3.20;;;6.50;99.90;;;;;;5035158;28;20645;-61
2023/12/31 06:05:47;;;;;;;4.10;2.90;;;6.50;99.90;;;;;;5034998;28;20206;-61
2023/12/31 06:08:14;;;;;;;6.85;3.03;;;6.50;99.90;;;;;;5034704;28;20206;-62
2023/12/31 06:10:40;;;;;;;3.25;2.90;;;6.50;99.90;;;;;;5034873;28;20210;-62
2023/12/31 06:13:09;;;;;;;4.18;3.78;;;6.50;99.90;;;;;;5036006;28;20594;-62
2023/12/31 06:15:35;;;;;;;3.78;3.25;;;6.60;99.90;;;;;;5036893;28;20209;-62
2023/12/31 06:18:02;;;;;;;3.00;2.65;;;6.60;99.90;;;;;;5035553;28;20209;-61
2023/12/31 06:20:29;;;;;;;3.55;2.80;;;6.60;99.90;;;;;;5035031;28;20198;-62
2023/12/31 06:22:56;;;;;;;4.70;2.58;;;6.60;99.90;;;;;;5034169;28;20714;-62
2023/12/31 06:25:22;;;;;;;5.43;2.80;;;6.70;99.90;;;;;;5034638;28;20198;-62
2023/12/31 06:27:50;;;;;;;2.50;2.30;;;6.70;99.90;;;;;;5034688;28;20198;-63
2023/12/31 06:30:18;;;;;;;3.58;2.45;;;6.70;99.90;;;;;;5034265;28;20553;-62
2023/12/31 06:32:45;;;;;;;4.32;2.50;;;6.80;99.90;;;;;;5034247;28;20222;-61
2023/12/31 06:35:11;;;;;;;6.00;3.10;;;6.80;99.90;;;;;;5033364;28;20209;-61
2023/12/31 06:37:38;;;;;;;3.13;2.05;;;6.80;99.90;;;;;;5040571;28;20202;-61
2023/12/31 06:40:06;;;;;;;3.67;2.70;;;6.90;99.90;;;;;;5038991;28;20209;-61
2023/12/31 06:42:33;;;;;;;2.97;1.90;;;6.90;99.90;;;;;;5034209;28;20590;-61
2023/12/31 06:45:00;;;;;;;3.85;1.75;;;7.00;99.90;;;;;;5033817;28;20229;-62
2023/12/31 06:47:28;;;;;;;4.05;1.90;;;7.00;99.90;;;;;;5034182;28;20225;-62
2023/12/31 06:49:55;;;;;;;2.45;1.63;;;7.00;99.90;;;;;;5033905;28;20240;-62
2023/12/31 06:52:21;;;;;;;2.88;1.80;;;7.10;99.90;;;;;;5033807;28;20230;-62
2023/12/31 06:54:48;;;;;;;2.67;2.00;;;7.10;99.90;;;;;;5034029;28;20207;-62
2023/12/31 06:57:15;;;;;;;3.38;2.10;;;7.20;99.90;;;;;;5034051;28;20198;-61
2023/12/31 06:59:42;;;;;;;3.33;1.73;;;7.20;99.90;;;;;;5034016;28;20202;-62
2023/12/31 07:02:08;;;;;;;1.77;1.65;;;7.20;99.90;;;;;;5033713;28;20226;-62
2023/12/31 07:04:36;;;;;;;2.05;1.85;;;7.30;99.90;;;;;;5033918;28;20228;-61
2023/12/31 07:07:03;;;;;;;2.20;1.90;;;7.30;99.90;;;;;;5034030;28;20202;-62
2023/12/31 07:09:32;;;;;;;2.95;2.05;;;7.30;99.90;;;;;;5033820;28;20212;-61
2023/12/31 07:11:59;;;;;;;2.75;2.00;;;7.20;99.90;;;;;;5033817;28;20237;-62
2023/12/31 07:14:26;;;;;;;2.67;1.80;;;7.20;99.90;;;;;;5033865;28;20210;-61
2023/12/31 07:16:53;;;;;;;4.60;2.13;;;7.20;99.90;;;;;;5033489;28;20655;-62
2023/12/31 07:19:20;;;;;;;3.30;2.05;;;7.20;99.90;;;;;;5033747;28;20198;-61
2023/12/31 07:21:48;;;;;;;4.65;2.22;;;7.20;99.90;;;;;;5033344;28;20269;-62
2023/12/31 07:24:15;;;;;;;3.05;2.20;;;7.20;99.90;;;;;;5033341;28;20199;-62
2023/12/31 07:26:42;;;;;;;3.55;2.33;;;7.20;99.90;;;;;;5034053;28;20297;-61
2023/12/31 07:29:09;;;;;;;2.45;1.80;;;7.20;99.90;;;;;;5034190;28;20206;-62
2023/12/31 07:31:36;;;;;;;2.22;1.60;;;7.20;99.90;;;;;;5033666;28;20594;-62
2023/12/31 07:34:03;;;;;;;2.03;1.80;;;7.30;99.90;;;;;;5033576;28;20213;-62
2023/12/31 07:36:30;;;;;;;2.53;2.17;;;7.30;99.90;;;;;;5033754;28;20213;-62
2023/12/31 07:38:58;;;;;;;2.30;1.92;;;7.30;99.90;;;;;;5033396;28;20202;-63
2023/12/31 07:41:25;;;;;;;2.00;1.80;;;7.30;99.90;;;;;;5032986;28;20222;-62
2023/12/31 07:43:52;;;;;;;1.85;1.70;;;7.40;99.90;;;;;;5033155;28;20206;-62
2023/12/31 07:46:19;;;;;;;2.70;1.65;;;7.40;99.90;;;;;;5032828;28;20209;-62
2023/12/31 07:48:45;;;;;;;3.25;2.17;;;7.40;99.90;;;;;;5033477;28;20245;-62
2023/12/31 07:51:12;;;;;;;2.25;1.80;;;7.50;99.90;;;;;;5033117;28;20223;-62
2023/12/31 07:53:40;;;;;;;2.20;2.00;;;7.50;99.90;;;;;;5032935;28;20739;-62
2023/12/31 07:56:08;;;;;;;1.90;1.63;;;7.50;99.90;;;;;;5033075;28;20206;-63
2023/12/31 07:58:35;;;;;;;1.90;1.70;;;7.50;99.90;;;;;;5033363;28;20202;-62
2023/12/31 08:01:03;;;;;;;4.85;2.05;;;7.50;99.90;;;;;;5032905;28;20205;-62
2023/12/31 08:03:30;;;;;;;4.22;2.10;;;7.60;99.90;;;;;;5032967;28;20205;-62
2023/12/31 08:05:56;;;;;;;2.80;1.80;;;7.60;99.90;;;;;;5033596;28;20206;-61
2023/12/31 08:08:23;;;;;;;2.33;2.00;;;7.60;99.90;;;;;;5033070;28;20198;-61
2023/12/31 08:10:50;;;;;;;2.20;1.60;;;7.70;99.90;;;;;;5034611;28;20668;-62
2023/12/31 08:13:18;;;;;;;2.33;1.95;;;7.80;99.90;;;;;;5033588;28;20218;-63
2023/12/31 08:15:45;;;;;;;2.00;1.70;;;7.80;99.90;;;;;;5033324;28;20545;-62
2023/12/31 08:18:12;;;;;;;13.85;2.47;;;7.80;99.90;;;;;;5032830;28;20283;-62
2023/12/31 08:20:38;;;;;;;2.60;1.63;;;7.90;99.90;;;;;;5032667;28;20198;-61
2023/12/31 08:23:05;;;;;;;5.05;1.65;;;7.90;99.90;;;;;;5032384;28;20226;-61
2023/12/31 08:25:32;;;;;;;3.05;1.70;;;7.90;99.90;;;;;;5032269;28;20684;-61
2023/12/31 08:27:59;;;;;;;3.40;2.00;;;7.90;99.90;;;;;;5032236;28;20668;-62
2023/12/31 08:30:27;;;;;;;2.42;1.70;;;7.90;99.90;;;;;;5032523;28;20204;-61
2023/12/31 08:32:54;;;;;;;2.70;2.00;;;7.90;99.90;;;;;;5031964;28;20669;-62
2023/12/31 08:35:23;;;;;;;2.50;1.83;;;8.00;99.90;;;;;;5043497;28;20691;-67
2023/12/31 08:37:50;;;;;;;2.17;1.83;;;8.00;99.90;;;;;;5033390;28;20213;-62
2023/12/31 08:40:19;;;;;;;3.13;1.85;;;8.00;99.90;;;;;;5034183;28;20229;-62
2023/12/31 08:42:45;;;;;;;2.13;1.85;;;8.00;99.90;;;;;;5034888;28;20222;-63
2023/12/31 08:45:13;;;;;;;4.03;2.88;;;8.00;99.90;;;;;;5033877;28;20213;-61
2023/12/31 08:47:41;;;;;;;4.15;2.50;;;8.00;99.90;;;;;;5033603;28;20209;-62
2023/12/31 08:50:09;;;;;;;2.72;2.50;;;8.00;99.90;;;;;;5033664;28;20198;-61
2023/12/31 08:52:39;;;;;;;2.05;1.90;;;8.00;99.90;;;;;;5032218;28;20233;-61
2023/12/31 08:55:07;;;;;;;5.28;2.63;;;8.00;99.90;;;;;;5032388;28;20187;-62
2023/12/31 08:57:34;;;;;;;3.85;2.60;;;8.00;99.90;;;;;;5033090;28;20652;-61
2023/12/31 09:00:01;;;;;;;3.20;2.40;;;8.00;99.90;;;;;;5035894;28;20198;-61
2023/12/31 09:02:28;;;;;;;3.35;3.05;;;8.10;99.90;;;;;;5035999;28;20237;-62
2023/12/31 09:04:56;;;;;;;3.60;3.08;;;8.10;99.90;;;;;;5036082;28;20210;-62
2023/12/31 09:07:23;;;;;;;4.80;2.67;;;8.20;99.90;;;;;;5035890;28;20203;-62
2023/12/31 09:09:50;;;;;;;4.75;2.80;;;8.20;99.90;;;;;;5036185;28;20202;-63
2023/12/31 09:12:16;;;;;;;3.30;2.95;;;8.30;99.90;;;;;;5035652;28;20230;-61
2023/12/31 09:14:43;;;;;;;2.53;2.30;;;8.30;99.90;;;;;;5036277;28;20264;-61
2023/12/31 09:17:11;;;;;;;2.47;2.28;;;8.40;99.90;;;;;;5036256;28;20206;-61
2023/12/31 09:19:40;;;;;;;3.95;1.92;;;8.40;99.90;;;;;;5036927;28;20206;-62
2023/12/31 09:22:08;;;;;;;3.67;1.90;;;8.40;99.90;;;;;;5036069;28;20226;-61
2023/12/31 09:24:36;;;;;;;3.00;2.15;;;8.40;99.90;;;;;;5035959;28;20202;-63
2023/12/31 09:27:03;;;;;;;3.00;2.40;;;8.50;99.90;;;;;;5035845;28;20202;-62
2023/12/31 09:29:29;;;;;;;5.72;2.42;;;8.50;99.90;;;;;;5035981;28;20557;-62
2023/12/31 09:31:56;;;;;;;2.35;1.90;;;8.50;99.90;;;;;;5036474;28;20226;-62
2023/12/31 09:34:23;;;;;;;2.47;1.85;;;8.60;99.90;;;;;;5035343;28;20227;-62
2023/12/31 09:36:51;;;;;;;2.38;2.17;;;8.60;99.90;;;;;;5035160;28;20202;-64
2023/12/31 09:39:19;;;;;;;3.72;2.15;;;8.60;99.90;;;;;;5036147;28;20606;-62
2023/12/31 09:41:50;;;;;;;2.00;1.80;;;8.60;99.90;;;;;;5035372;28;20254;-62
2023/12/31 09:44:19;;;;;;;2.40;2.20;;;8.60;99.90;;;;;;5035042;28;20202;-61
2023/12/31 09:46:52;;;;;;;2.17;1.98;;;8.60;99.90;;;;;;5034869;28;20601;-62
2023/12/31 09:49:20;;;;;;;2.60;2.13;;;8.60;99.90;;;;;;5034926;28;20587;-66
2023/12/31 09:51:47;;;;;;;4.55;3.15;;;8.70;99.90;;;;;;5034638;28;20712;-62
2023/12/31 09:54:15;;;;;;;3.40;3.08;;;8.70;99.90;;;;;;5034705;28;20222;-62
2023/12/31 09:56:44;;;;;;;2.35;2.05;;;8.70;99.90;;;;;;5034983;28;20198;-62
2023/12/31 09:59:11;;;;;;;2.63;2.38;;;8.80;99.90;;;;;;5034958;28;20289;-61
2023/12/31 10:01:39;;;;;;;3.05;2.30;;;8.80;99.90;;;;;;5034388;28;20234;-62
2023/12/31 10:04:07;;;;;;;2.85;2.20;;;8.80;99.90;;;;;;5034454;28;20252;-62
2023/12/31 10:06:35;;;;;;;3.45;2.75;;;8.90;99.90;;;;;;5034713;28;20260;-62
2023/12/31 10:09:02;;;;;;;3.78;2.83;;;8.80;99.90;;;;;;5034555;28;20212;-63
2023/12/31 10:11:29;;;;;;;3.67;2.70;;;8.80;99.90;;;;;;5034690;28;20230;-61
2023/12/31 10:13:58;;;;;;;3.25;2.70;;;8.80;99.90;;;;;;5034470;28;20230;-62
2023/12/31 10:16:34;;;;;;;3.50;2.80;;;8.90;99.90;;;;;;5034646;28;20208;-62
2023/12/31 10:19:01;;;;;;;3.23;2.57;;;8.90;99.90;;;;;;5034579;28;20437;-62
2023/12/31 10:21:28;;;;;;;2.90;1.90;;;8.90;99.90;;;;;;5034288;28;20461;-62
2023/12/31 10:23:55;;;;;;;3.85;2.67;;;8.90;99.90;;;;;;5034597;28;20194;-61
2023/12/31 10:26:21;;;;;;;3.90;2.30;;;8.80;99.90;;;;;;5034842;28;20217;-62
2023/12/31 10:28:49;;;;;;;2.55;2.33;;;8.90;99.90;;;;;;5034656;28;20198;-62
2023/12/31 10:31:17;;;;;;;4.05;2.05;;;8.90;99.90;;;;;;5034401;28;20222;-63
2023/12/31 10:33:44;;;;;;;3.20;2.50;;;8.90;99.90;;;;;;5042485;28;20222;-63
2023/12/31 10:36:10;;;;;;;4.07;2.65;;;8.90;99.90;;;;;;5036234;28;20206;-61
2023/12/31 10:38:47;;;;;;;2.65;2.33;;;8.90;99.90;;;;;;5039257;28;20206;-61
2023/12/31 10:41:17;;;;;;;2.72;2.20;;;8.90;99.90;;;;;;5037202;28;20257;-62
2023/12/31 10:43:46;;;;;;;3.78;2.20;;;9.00;99.90;;;;;;5036760;28;20203;-60
2023/12/31 10:46:15;;;;;;;2.40;2.05;;;9.00;99.90;;;;;;5037263;28;20206;-62
2023/12/31 10:48:48;;;;;;;2.72;2.25;;;9.00;99.90;;;;;;5035609;28;20209;-65
2023/12/31 10:51:21;;;;;;;3.40;2.53;;;9.00;99.90;;;;;;5034379;28;20227;-62
2023/12/31 10:53:51;;;;;;;2.92;2.28;;;9.10;99.90;;;;;;5034043;28;20213;-62
2023/12/31 10:56:18;;;;;;;4.93;2.72;;;9.10;99.90;;;;;;5034296;28;20214;-62
2023/12/31 10:58:46;;;;;;;3.25;2.30;;;9.10;99.90;;;;;;5040396;28;20213;-61
2023/12/31 11:01:13;;;;;;;3.55;2.55;;;9.20;99.90;;;;;;5039158;28;20337;-61
2023/12/31 11:03:43;;;;;;;2.88;2.10;;;9.20;99.90;;;;;;5035516;28;20191;-62
2023/12/31 11:06:13;;;;;;;2.33;2.13;;;9.20;99.90;;;;;;5037152;28;20209;-62
2023/12/31 11:08:41;;;;;;;3.67;2.50;;;9.30;99.90;;;;;;5035015;28;20569;-62
2023/12/31 11:11:08;;;;;;;4.03;2.20;;;9.30;99.90;;;;;;5034971;28;20445;-62
2023/12/31 11:13:38;;;;;;;2.30;2.10;;;9.30;99.90;;;;;;5034879;28;20309;-61
2023/12/31 11:16:07;;;;;;;2.47;2.27;;;9.40;99.90;;;;;;5034730;28;20198;-61
2023/12/31 11:19:00;;;;;;;5.15;2.45;;;9.50;99.90;;;;;;5034350;28;20445;-63
2023/12/31 11:21:54;;;;;;;3.27;2.73;;;9.60;99.90;;;;;;5033665;28;20707;-62
2023/12/31 11:24:25;;;;;;;3.40;2.50;;;9.60;99.90;;;;;;5033679;28;20417;-62
2023/12/31 11:27:06;;;;;;;2.27;2.07;;;9.70;99.90;;;;;;5033892;28;20432;-62
2023/12/31 11:29:33;;;;;;;3.37;2.80;;;9.70;99.90;;;;;;5033932;28;20528;-60
2023/12/31 11:32:00;;;;;;;3.37;2.47;;;9.80;99.90;;;;;;5032895;28;20471;-61
2023/12/31 11:34:27;;;;;;;2.53;2.33;;;9.80;99.90;;;;;;5033225;28;20989;-62
2023/12/31 11:37:00;;;;;;;3.07;2.77;;;9.90;99.90;;;;;;5033264;28;20957;-62
2023/12/31 11:39:26;;;;;;;2.50;2.30;;;10.00;99.90;;;;;;5033867;28;20425;-62
2023/12/31 11:41:53;;;;;;;3.00;2.47;;;10.10;99.90;;;;;;5033442;28;20540;-63
2023/12/31 11:44:34;;;;;;;2.47;2.27;;;10.20;99.90;;;;;;5033367;28;20437;-61
2023/12/31 11:47:01;;;;;;;2.90;2.53;;;10.20;99.90;;;;;;5033824;28;20422;-62
2023/12/31 11:49:28;;;;;;;3.43;3.13;;;10.30;99.90;;;;;;5033661;28;20437;-62
2023/12/31 11:51:57;;;;;;;2.60;2.40;;;10.30;99.90;;;;;;5033239;28;20461;-62
2023/12/31 11:54:25;;;;;;;2.80;2.60;;;10.40;99.90;;;;;;5033564;28;20476;-62
2023/12/31 11:56:52;;;;;;;3.93;3.00;;;10.40;99.90;;;;;;5032915;28;20806;-60
2023/12/31 11:59:19;;;;;;;3.47;2.40;;;10.40;99.90;;;;;;5032915;28;20448;-62
2023/12/31 12:01:48;;;;;;;3.13;2.23;;;10.30;99.90;;;;;;5032959;28;20568;-62
2023/12/31 12:04:15;;;;;;;3.73;2.80;;;10.30;99.90;;;;;;5033569;28;20441;-62
2023/12/31 12:06:42;;;;;;;2.60;2.17;;;10.20;99.90;;;;;;5034031;28;20450;-62
2023/12/31 12:09:12;;;;;;;2.37;2.10;;;10.20;99.90;;;;;;5032636;28;20437;-62
2023/12/31 12:11:43;;;;;;;2.63;2.40;;;10.10;99.90;;;;;;5032973;28;20468;-62
2023/12/31 12:14:10;;;;;;;3.00;2.70;;;10.10;99.90;;;;;;5032724;28;20472;-62
2023/12/31 12:16:37;;;;;;;4.70;3.43;;;10.00;99.90;;;;;;5032709;28;20437;-62
2023/12/31 12:19:05;;;;;;;2.90;2.00;;;10.00;99.90;;;;;;5033049;28;20437;-62
2023/12/31 12:21:32;;;;;;;2.67;2.20;;;10.00;99.90;;;;;;5033391;28;20475;-62
2023/12/31 12:23:59;;;;;;;2.97;2.40;;;9.90;99.90;;;;;;5032477;28;20524;-62
2023/12/31 12:26:27;;;;;;;3.70;2.43;;;9.90;99.90;;;;;;5032967;28;20520;-63
2023/12/31 12:28:55;;;;;;;2.80;2.50;;;9.90;99.90;;;;;;5032554;28;20453;-62
2023/12/31 12:31:22;;;;;;;3.20;2.20;;;9.90;99.90;;;;;;5032982;28;20557;-63
2023/12/31 12:33:52;;;;;;;2.60;2.40;;;9.90;99.90;;;;;;5035357;28;20523;-64
2023/12/31 12:36:20;;;;;;;3.77;2.30;;;9.90;99.90;;;;;;5036981;28;20425;-63
2023/12/31 12:38:48;;;;;;;2.73;2.50;;;9.90;99.90;;;;;;5048225;28;20455;-63
2023/12/31 12:41:20;;;;;;;2.70;2.27;;;10.00;99.90;;;;;;5041581;28;20496;-61
2023/12/31 12:43:51;;;;;;;2.83;2.50;;;10.00;99.90;;;;;;5036662;28;20428;-61
2023/12/31 12:46:18;;;;;;;2.23;2.03;;;10.00;99.90;;;;;;5036950;28;20429;-63
2023/12/31 12:48:49;;;;;;;3.23;2.37;;;10.10;99.90;;;;;;5036750;28;20451;-62
2023/12/31 12:51:16;;;;;;;3.23;2.30;;;10.10;99.90;;;;;;5036685;28;20456;-62
2023/12/31 12:53:43;;;;;;;2.80;2.30;;;10.10;99.90;;;;;;5036745;28;20481;-62
2023/12/31 12:56:10;;;;;;;2.90;2.20;;;10.10;99.90;;;;;;5036578;28;20456;-63
2023/12/31 12:58:37;;;;;;;2.70;2.20;;;10.20;99.90;;;;;;5037044;28;20452;-62
2023/12/31 13:01:06;;;;;;;2.80;2.50;;;10.30;99.90;;;;;;5035944;28;20449;-62